createdAt,value
2023-03-29T00:00:56.107Z,6.50
2023-03-29T00:01:56.144Z,6.50
2023-03-29T00:02:56.149Z,7.00
2023-03-29T00:03:56.213Z,7.20
2023-03-29T00:04:56.098Z,6.60
2023-03-29T00:05:56.072Z,6.80
2023-03-29T00:06:56.049Z,6.40
2023-03-29T00:07:56.062Z,6.00
2023-03-29T00:08:56.054Z,6.40
2023-03-29T00:09:56.046Z,6.40
2023-03-29T00:10:56.032Z,7.00
2023-03-29T00:11:56.045Z,6.40
2023-03-29T00:12:55.980Z,6.20
2023-03-29T00:13:55.998Z,7.10
2023-03-29T00:14:55.972Z,6.30
2023-03-29T00:15:55.979Z,6.30
2023-03-29T00:16:56.031Z,6.30
2023-03-29T00:17:56.003Z,6.20
2023-03-29T00:18:55.927Z,6.00
2023-03-29T00:19:55.938Z,6.10
2023-03-29T00:20:56.141Z,6.50
2023-03-29T00:21:55.932Z,6.70
2023-03-29T00:22:55.901Z,6.50
2023-03-29T00:23:55.897Z,5.70
2023-03-29T00:24:55.866Z,6.80
2023-03-29T00:25:55.882Z,6.00
2023-03-29T00:26:55.836Z,6.20
2023-03-29T00:27:55.869Z,5.80
2023-03-29T00:28:55.839Z,6.30
2023-03-29T00:29:55.832Z,6.50
2023-03-29T00:30:55.842Z,6.40
2023-03-29T00:31:55.952Z,6.10
2023-03-29T00:32:55.852Z,6.40
2023-03-29T00:33:55.791Z,6.70
2023-03-29T00:34:55.768Z,6.60
2023-03-29T00:35:55.798Z,5.90
2023-03-29T00:36:55.734Z,6.00
2023-03-29T00:37:55.755Z,6.30
2023-03-29T00:38:55.849Z,6.60
2023-03-29T00:39:55.732Z,6.20
2023-03-29T00:40:55.765Z,6.70
2023-03-29T00:41:55.716Z,6.00
2023-03-29T00:42:55.679Z,5.90
2023-03-29T00:43:55.697Z,6.00
2023-03-29T00:44:55.643Z,6.50
2023-03-29T00:45:55.721Z,5.90
2023-03-29T00:46:55.660Z,6.30
2023-03-29T00:47:55.676Z,5.90
2023-03-29T00:48:55.601Z,6.30
2023-03-29T00:49:55.648Z,5.90
2023-03-29T00:50:55.598Z,6.50
2023-03-29T00:51:55.595Z,6.10
2023-03-29T00:52:55.613Z,6.20
2023-03-29T00:53:55.586Z,6.00
2023-03-29T00:54:55.539Z,6.00
2023-03-29T00:55:55.565Z,5.80
2023-03-29T00:56:55.559Z,6.40
2023-03-29T00:57:55.539Z,6.20
2023-03-29T00:58:55.555Z,6.10
2023-03-29T00:59:55.515Z,5.80
2023-03-29T01:00:55.481Z,6.30
2023-03-29T01:01:55.572Z,5.70
2023-03-29T01:02:55.497Z,5.80
2023-03-29T01:03:55.501Z,5.80
2023-03-29T01:04:55.476Z,5.80
2023-03-29T01:05:55.452Z,6.40
2023-03-29T01:06:55.441Z,5.90
2023-03-29T01:07:55.456Z,6.40
2023-03-29T01:08:55.412Z,5.90
2023-03-29T01:09:55.410Z,6.10
2023-03-29T01:10:55.419Z,6.00
2023-03-29T01:11:55.414Z,6.00
2023-03-29T01:12:55.362Z,6.00
2023-03-29T01:13:55.407Z,5.90
2023-03-29T01:14:55.340Z,6.40
2023-03-29T01:15:55.413Z,6.00
2023-03-29T01:16:55.411Z,5.80
2023-03-29T01:17:55.398Z,6.00
2023-03-29T01:18:55.303Z,5.60
2023-03-29T01:19:55.306Z,5.30
2023-03-29T01:20:55.276Z,5.60
2023-03-29T01:21:55.292Z,5.60
2023-03-29T01:22:55.302Z,6.00
2023-03-29T01:23:55.264Z,5.50
2023-03-29T01:24:55.254Z,5.60
2023-03-29T01:25:55.245Z,6.00
2023-03-29T01:26:55.228Z,5.80
2023-03-29T01:27:55.221Z,5.90
2023-03-29T01:28:55.217Z,5.30
2023-03-29T01:29:55.220Z,5.40
2023-03-29T01:30:55.166Z,5.40
2023-03-29T01:31:55.193Z,7.00
2023-03-29T01:32:55.178Z,5.40
2023-03-29T01:33:55.154Z,5.10
2023-03-29T01:34:55.146Z,5.40
2023-03-29T01:35:55.169Z,5.30
2023-03-29T01:36:55.132Z,5.40
2023-03-29T01:37:55.126Z,5.40
2023-03-29T01:38:55.095Z,5.60
2023-03-29T01:39:55.112Z,5.50
2023-03-29T01:40:55.135Z,5.40
2023-03-29T01:41:55.085Z,5.50
2023-03-29T01:42:55.076Z,5.50
2023-03-29T01:43:55.061Z,5.90
2023-03-29T01:44:55.029Z,5.40
2023-03-29T01:45:55.059Z,5.90
2023-03-29T01:46:55.045Z,5.40
2023-03-29T01:47:55.049Z,5.00
2023-03-29T01:48:54.999Z,5.20
2023-03-29T01:49:54.994Z,5.30
2023-03-29T01:50:54.960Z,5.60
2023-03-29T01:51:54.980Z,5.30
2023-03-29T01:52:54.980Z,5.10
2023-03-29T01:53:54.977Z,5.40
2023-03-29T01:54:54.974Z,5.30
2023-03-29T01:55:54.945Z,5.40
2023-03-29T01:56:54.949Z,5.00
2023-03-29T01:57:54.907Z,5.70
2023-03-29T01:58:54.900Z,5.50
2023-03-29T01:59:54.888Z,5.50
2023-03-29T02:00:54.912Z,5.60
2023-03-29T02:01:54.919Z,5.10
2023-03-29T02:02:54.875Z,6.00
2023-03-29T02:03:54.851Z,5.30
2023-03-29T02:04:54.852Z,5.70
2023-03-29T02:05:54.832Z,5.40
2023-03-29T02:06:54.812Z,5.20
2023-03-29T02:07:54.839Z,5.20
2023-03-29T02:08:54.772Z,5.00
2023-03-29T02:09:54.812Z,5.60
2023-03-29T02:10:54.787Z,5.30
2023-03-29T02:11:54.762Z,5.80
2023-03-29T02:12:54.768Z,5.40
2023-03-29T02:13:54.743Z,5.60
2023-03-29T02:14:54.706Z,5.20
2023-03-29T02:15:54.844Z,5.60
2023-03-29T02:16:54.704Z,5.60
2023-03-29T02:17:54.775Z,5.40
2023-03-29T02:18:54.673Z,5.40
2023-03-29T02:19:54.682Z,5.20
2023-03-29T02:20:54.656Z,5.40
2023-03-29T02:21:54.653Z,5.40
2023-03-29T02:22:54.651Z,5.60
2023-03-29T02:23:54.707Z,5.30
2023-03-29T02:24:54.620Z,5.10
2023-03-29T02:25:54.621Z,5.40
2023-03-29T02:26:54.577Z,5.00
2023-03-29T02:27:54.612Z,5.10
2023-03-29T02:28:54.572Z,5.10
2023-03-29T02:29:54.579Z,5.40
2023-03-29T02:30:54.592Z,5.80
2023-03-29T02:31:54.554Z,5.30
2023-03-29T02:32:54.585Z,6.00
2023-03-29T02:33:54.535Z,5.50
2023-03-29T02:34:54.533Z,5.20
2023-03-29T02:35:54.561Z,4.90
2023-03-29T02:36:54.510Z,5.10
2023-03-29T02:37:54.482Z,4.80
2023-03-29T02:38:54.473Z,5.30
2023-03-29T02:39:54.451Z,5.00
2023-03-29T02:40:54.507Z,5.50
2023-03-29T02:41:54.424Z,5.60
2023-03-29T02:42:54.460Z,5.00
2023-03-29T02:43:54.405Z,4.90
2023-03-29T02:44:54.416Z,5.20
2023-03-29T02:45:54.388Z,5.10
2023-03-29T02:46:54.466Z,5.20
2023-03-29T02:47:54.424Z,5.00
2023-03-29T02:48:54.380Z,5.10
2023-03-29T02:49:54.342Z,4.90
2023-03-29T02:50:54.376Z,5.40
2023-03-29T02:51:54.334Z,4.90
2023-03-29T02:52:54.354Z,5.20
2023-03-29T02:53:54.301Z,6.30
2023-03-29T02:54:54.315Z,6.00
2023-03-29T02:55:54.275Z,4.90
2023-03-29T02:56:54.360Z,4.90
2023-03-29T02:57:54.256Z,4.80
2023-03-29T02:58:54.303Z,5.10
2023-03-29T02:59:54.249Z,4.60
2023-03-29T03:00:54.255Z,4.30
2023-03-29T03:01:54.316Z,4.50
2023-03-29T03:02:54.325Z,4.90
2023-03-29T03:03:54.280Z,5.00
2023-03-29T03:04:54.229Z,5.00
2023-03-29T03:05:54.169Z,4.80
2023-03-29T03:06:54.192Z,4.50
2023-03-29T03:07:54.146Z,4.60
2023-03-29T03:08:54.174Z,4.80
2023-03-29T03:09:54.134Z,4.30
2023-03-29T03:10:54.165Z,4.50
2023-03-29T03:11:54.119Z,4.90
2023-03-29T03:12:54.124Z,4.30
2023-03-29T03:13:54.090Z,4.30
2023-03-29T03:14:54.098Z,4.20
2023-03-29T03:15:54.095Z,4.50
2023-03-29T03:16:54.111Z,4.40
2023-03-29T03:17:54.064Z,4.80
2023-03-29T03:18:54.061Z,4.80
2023-03-29T03:19:54.036Z,4.70
2023-03-29T03:20:54.036Z,4.40
2023-03-29T03:21:54.003Z,4.50
2023-03-29T03:22:54.062Z,4.50
2023-03-29T03:23:54.004Z,4.40
2023-03-29T03:24:53.994Z,4.50
2023-03-29T03:25:53.964Z,4.20
2023-03-29T03:26:53.985Z,4.10
2023-03-29T03:27:53.940Z,4.10
2023-03-29T03:28:53.970Z,4.40
2023-03-29T03:29:53.910Z,4.70
2023-03-29T03:30:53.938Z,4.40
2023-03-29T03:31:54.259Z,4.20
2023-03-29T03:32:53.939Z,4.30
2023-03-29T03:33:53.891Z,4.40
2023-03-29T03:34:53.912Z,4.30
2023-03-29T03:35:53.888Z,4.50
2023-03-29T03:36:53.865Z,4.30
2023-03-29T03:37:53.844Z,4.70
2023-03-29T03:38:53.842Z,4.40
2023-03-29T03:39:53.818Z,4.10
2023-03-29T03:40:53.846Z,4.50
2023-03-29T03:41:53.790Z,4.40
2023-03-29T03:42:53.832Z,4.10
2023-03-29T03:43:53.805Z,4.50
2023-03-29T03:44:53.796Z,4.50
2023-03-29T03:45:53.826Z,4.30
2023-03-29T03:46:53.792Z,4.70
2023-03-29T03:47:53.799Z,4.30
2023-03-29T03:48:53.763Z,4.40
2023-03-29T03:49:53.732Z,4.50
2023-03-29T03:50:53.737Z,4.00
2023-03-29T03:51:53.702Z,4.30
2023-03-29T03:52:53.759Z,4.10
2023-03-29T03:53:53.703Z,4.60
2023-03-29T03:54:53.694Z,4.00
2023-03-29T03:55:53.684Z,4.10
2023-03-29T03:56:53.683Z,4.00
2023-03-29T03:57:53.650Z,4.30
2023-03-29T03:58:53.680Z,4.20
2023-03-29T03:59:53.629Z,4.30
2023-03-29T04:00:53.633Z,4.00
2023-03-29T04:01:53.628Z,4.30
2023-03-29T04:02:53.668Z,4.10
2023-03-29T04:03:53.664Z,4.40
2023-03-29T04:04:53.602Z,4.20
2023-03-29T04:05:53.553Z,4.50
2023-03-29T04:06:53.567Z,4.10
2023-03-29T04:07:53.540Z,4.40
2023-03-29T04:08:53.546Z,4.50
2023-03-29T04:09:53.538Z,4.40
2023-03-29T04:10:53.534Z,4.10
2023-03-29T04:11:53.488Z,4.40
2023-03-29T04:12:53.507Z,4.30
2023-03-29T04:13:53.475Z,4.40
2023-03-29T04:14:53.509Z,4.30
2023-03-29T04:15:53.473Z,5.00
2023-03-29T04:16:53.459Z,4.70
2023-03-29T04:17:53.492Z,4.70
2023-03-29T04:18:53.522Z,4.60
2023-03-29T04:19:53.409Z,4.40
2023-03-29T04:20:53.445Z,4.50
2023-03-29T04:21:53.456Z,4.60
2023-03-29T04:22:53.405Z,4.70
2023-03-29T04:23:53.366Z,4.80
2023-03-29T04:24:53.408Z,4.60
2023-03-29T04:25:53.364Z,4.40
2023-03-29T04:26:53.357Z,4.40
2023-03-29T04:27:53.342Z,4.90
2023-03-29T04:28:53.337Z,4.60
2023-03-29T04:29:53.316Z,4.40
2023-03-29T04:30:53.348Z,4.70
2023-03-29T04:31:53.352Z,4.20
2023-03-29T04:32:53.333Z,4.20
2023-03-29T04:33:53.288Z,4.30
2023-03-29T04:34:53.278Z,4.30
2023-03-29T04:35:53.295Z,4.30
2023-03-29T04:36:53.307Z,4.40
2023-03-29T04:37:53.215Z,4.00
2023-03-29T04:38:53.244Z,4.40
2023-03-29T04:39:53.197Z,4.30
2023-03-29T04:40:53.235Z,4.30
2023-03-29T04:41:53.180Z,4.40
2023-03-29T04:42:53.210Z,4.30
2023-03-29T04:43:53.170Z,4.50
2023-03-29T04:44:53.229Z,4.40
2023-03-29T04:45:53.137Z,4.00
2023-03-29T04:46:53.171Z,4.50
2023-03-29T04:47:53.181Z,4.60
2023-03-29T04:48:53.128Z,4.60
2023-03-29T04:49:53.091Z,4.30
2023-03-29T04:50:53.112Z,4.10
2023-03-29T04:51:53.075Z,4.20
2023-03-29T04:52:53.094Z,4.70
2023-03-29T04:53:53.070Z,4.40
2023-03-29T04:54:53.077Z,4.50
2023-03-29T04:55:53.033Z,4.40
2023-03-29T04:56:53.060Z,4.60
2023-03-29T04:57:53.009Z,4.60
2023-03-29T04:58:53.066Z,4.60
2023-03-29T04:59:52.991Z,4.60
2023-03-29T05:00:53.075Z,4.80
2023-03-29T05:01:53.028Z,4.80
2023-03-29T05:02:52.990Z,4.90
2023-03-29T05:03:53.005Z,4.60
2023-03-29T05:04:52.960Z,5.00
2023-03-29T05:05:52.934Z,4.50
2023-03-29T05:06:52.943Z,4.50
2023-03-29T05:07:52.903Z,4.60
2023-03-29T05:08:52.921Z,4.60
2023-03-29T05:09:52.899Z,4.20
2023-03-29T05:10:52.939Z,3.90
2023-03-29T05:11:52.891Z,4.50
2023-03-29T05:12:52.881Z,4.40
2023-03-29T05:13:52.852Z,3.80
2023-03-29T05:14:52.880Z,4.20
2023-03-29T05:15:52.865Z,4.20
2023-03-29T05:16:52.848Z,4.00
2023-03-29T05:17:52.845Z,4.00
2023-03-29T05:18:52.817Z,3.90
2023-03-29T05:19:52.788Z,4.10
2023-03-29T05:20:52.800Z,4.60
2023-03-29T05:21:52.769Z,4.70
2023-03-29T05:22:52.789Z,4.30
2023-03-29T05:23:52.732Z,4.30
2023-03-29T05:24:52.774Z,4.60
2023-03-29T05:25:52.720Z,4.90
2023-03-29T05:26:52.741Z,5.10
2023-03-29T05:27:52.692Z,4.20
2023-03-29T05:28:52.726Z,4.60
2023-03-29T05:29:52.682Z,4.40
2023-03-29T05:30:52.713Z,4.80
2023-03-29T05:31:52.763Z,4.40
2023-03-29T05:32:52.739Z,4.70
2023-03-29T05:33:52.648Z,4.30
2023-03-29T05:34:52.644Z,4.50
2023-03-29T05:35:52.676Z,4.90
2023-03-29T05:36:52.642Z,4.80
2023-03-29T05:37:52.616Z,4.50
2023-03-29T05:38:52.596Z,4.80
2023-03-29T05:39:52.574Z,5.20
2023-03-29T05:40:52.585Z,4.20
2023-03-29T05:41:52.568Z,4.40
2023-03-29T05:42:52.560Z,5.00
2023-03-29T05:43:52.571Z,4.10
2023-03-29T05:44:54.481Z,4.50
2023-03-29T05:45:52.591Z,4.70
2023-03-29T05:46:52.542Z,4.20
2023-03-29T05:47:52.564Z,4.50
2023-03-29T05:48:52.492Z,5.50
2023-03-29T05:49:52.470Z,4.50
2023-03-29T05:50:52.464Z,4.60
2023-03-29T05:51:52.448Z,4.50
2023-03-29T05:52:52.512Z,4.50
2023-03-29T05:53:52.426Z,4.70
2023-03-29T05:54:52.438Z,4.60
2023-03-29T05:55:52.424Z,4.40
2023-03-29T05:56:52.479Z,4.70
2023-03-29T05:57:52.376Z,4.40
2023-03-29T05:58:54.897Z,4.70
2023-03-29T05:59:52.356Z,4.80
2023-03-29T06:00:52.386Z,4.30
2023-03-29T06:01:52.347Z,4.60
2023-03-29T06:02:52.551Z,4.00
2023-03-29T06:03:52.564Z,4.10
2023-03-29T06:04:52.343Z,4.20
2023-03-29T06:05:52.295Z,4.10
2023-03-29T06:06:52.320Z,4.10
2023-03-29T06:07:52.275Z,4.20
2023-03-29T06:08:52.569Z,4.50
2023-03-29T06:09:52.263Z,4.50
2023-03-29T06:10:52.263Z,4.50
2023-03-29T06:11:52.233Z,4.40
2023-03-29T06:12:52.254Z,4.40
2023-03-29T06:13:52.220Z,4.50
2023-03-29T06:14:52.248Z,4.60
2023-03-29T06:15:52.187Z,5.20
2023-03-29T06:16:52.231Z,4.80
2023-03-29T06:17:52.230Z,5.70
2023-03-29T06:18:52.192Z,5.30
2023-03-29T06:19:52.156Z,5.50
2023-03-29T06:20:52.165Z,5.30
2023-03-29T06:21:52.127Z,5.60
2023-03-29T06:22:52.159Z,5.60
2023-03-29T06:23:52.112Z,5.10
2023-03-29T06:24:52.146Z,5.30
2023-03-29T06:25:52.086Z,5.20
2023-03-29T06:26:52.101Z,5.30
2023-03-29T06:27:52.110Z,5.30
2023-03-29T06:28:52.516Z,4.80
2023-03-29T06:29:52.045Z,4.70
2023-03-29T06:30:52.174Z,4.60
2023-03-29T06:31:52.115Z,4.90
2023-03-29T06:32:52.153Z,4.30
2023-03-29T06:33:51.999Z,5.00
2023-03-29T06:34:52.010Z,4.60
2023-03-29T06:35:52.216Z,5.00
2023-03-29T06:36:51.992Z,4.80
2023-03-29T06:37:51.959Z,4.80
2023-03-29T06:38:51.977Z,4.80
2023-03-29T06:39:53.395Z,4.80
2023-03-29T06:40:52.068Z,4.90
2023-03-29T06:41:51.923Z,4.80
2023-03-29T06:42:51.932Z,4.70
2023-03-29T06:43:51.896Z,4.80
2023-03-29T06:44:51.927Z,4.80
2023-03-29T06:45:51.886Z,4.60
2023-03-29T06:46:52.020Z,5.30
2023-03-29T06:47:51.902Z,4.70
2023-03-29T06:48:51.833Z,4.80
2023-03-29T06:49:51.862Z,5.10
2023-03-29T06:50:51.883Z,5.20
2023-03-29T06:51:51.829Z,5.00
2023-03-29T06:52:51.808Z,6.10
2023-03-29T06:53:51.812Z,5.10
2023-03-29T06:54:51.785Z,5.00
2023-03-29T06:55:51.849Z,5.40
2023-03-29T06:56:51.822Z,5.10
2023-03-29T06:57:51.766Z,5.40
2023-03-29T06:58:51.736Z,5.00
2023-03-29T06:59:51.750Z,4.90
2023-03-29T07:00:51.724Z,4.90
2023-03-29T07:01:51.800Z,5.10
2023-03-29T07:02:51.729Z,4.90
2023-03-29T07:03:51.733Z,5.10
2023-03-29T07:04:51.683Z,5.50
2023-03-29T07:05:51.681Z,5.30
2023-03-29T07:06:51.672Z,5.40
2023-03-29T07:07:51.677Z,5.00
2023-03-29T07:08:51.626Z,5.40
2023-03-29T07:09:51.654Z,5.20
2023-03-29T07:10:51.628Z,5.40
2023-03-29T07:11:51.617Z,5.30
2023-03-29T07:12:51.609Z,5.30
2023-03-29T07:13:51.607Z,5.40
2023-03-29T07:14:51.579Z,5.50
2023-03-29T07:15:51.599Z,5.20
2023-03-29T07:16:51.543Z,5.30
2023-03-29T07:17:51.630Z,5.40
2023-03-29T07:18:51.530Z,5.50
2023-03-29T07:19:51.544Z,5.40
2023-03-29T07:20:51.496Z,5.00
2023-03-29T07:21:51.522Z,5.30
2023-03-29T07:22:51.588Z,5.40
2023-03-29T07:23:51.500Z,5.20
2023-03-29T07:24:51.467Z,5.00
2023-03-29T07:25:51.497Z,5.10
2023-03-29T07:27:03.195Z,4.80
2023-03-29T07:27:51.476Z,4.90
2023-03-29T07:28:51.429Z,4.90
2023-03-29T07:29:51.465Z,4.90
2023-03-29T07:30:51.605Z,5.00
2023-03-29T07:31:51.407Z,4.80
2023-03-29T07:32:51.471Z,4.70
2023-03-29T07:33:51.491Z,4.60
2023-03-29T07:34:51.390Z,4.60
2023-03-29T07:35:51.446Z,4.80
2023-03-29T07:36:51.330Z,5.40
2023-03-29T07:37:51.337Z,5.70
2023-03-29T07:38:52.027Z,5.20
2023-03-29T07:39:51.332Z,4.80
2023-03-29T07:40:51.289Z,5.20
2023-03-29T07:41:51.295Z,5.00
2023-03-29T07:42:51.273Z,5.20
2023-03-29T07:43:51.274Z,5.90
2023-03-29T07:44:51.299Z,5.70
2023-03-29T07:45:51.317Z,5.90
2023-03-29T07:46:51.237Z,5.90
2023-03-29T07:47:51.278Z,5.80
2023-03-29T07:48:51.203Z,6.00
2023-03-29T07:49:53.553Z,5.40
2023-03-29T07:50:51.187Z,5.90
2023-03-29T07:51:51.195Z,5.00
2023-03-29T07:52:51.203Z,6.30
2023-03-29T07:53:51.168Z,5.30
2023-03-29T07:54:51.149Z,5.10
2023-03-29T07:55:51.147Z,4.60
2023-03-29T07:56:51.171Z,4.30
2023-03-29T07:57:51.127Z,4.40
2023-03-29T07:58:51.088Z,5.30
2023-03-29T07:59:51.112Z,4.40
2023-03-29T08:00:51.846Z,4.40
2023-03-29T08:01:51.091Z,4.60
2023-03-29T08:02:51.105Z,4.70
2023-03-29T08:03:51.207Z,4.80
2023-03-29T08:04:51.052Z,4.70
2023-03-29T08:05:51.077Z,4.40
2023-03-29T08:06:51.006Z,4.70
2023-03-29T08:07:51.038Z,4.40
2023-03-29T08:08:50.981Z,4.70
2023-03-29T08:09:50.991Z,4.70
2023-03-29T08:10:51.018Z,5.20
2023-03-29T08:11:50.988Z,4.60
2023-03-29T08:12:50.960Z,4.40
2023-03-29T08:13:50.963Z,4.60
2023-03-29T08:14:50.918Z,4.80
2023-03-29T08:15:50.938Z,4.70
2023-03-29T08:16:51.036Z,4.60
2023-03-29T08:17:50.934Z,4.60
2023-03-29T08:18:50.882Z,4.60
2023-03-29T08:19:52.021Z,4.50
2023-03-29T08:20:50.869Z,4.80
2023-03-29T08:21:50.886Z,4.60
2023-03-29T08:22:50.850Z,5.20
2023-03-29T08:23:50.863Z,4.60
2023-03-29T08:24:50.837Z,4.70
2023-03-29T08:25:50.836Z,4.80
2023-03-29T08:26:50.841Z,4.80
2023-03-29T08:27:50.830Z,4.70
2023-03-29T08:28:50.781Z,4.60
2023-03-29T08:29:50.822Z,4.70
2023-03-29T08:30:50.821Z,4.70
2023-03-29T08:31:50.774Z,4.70
2023-03-29T08:32:52.938Z,4.30
2023-03-29T08:33:50.755Z,4.50
2023-03-29T08:34:50.710Z,4.70
2023-03-29T08:35:50.786Z,4.60
2023-03-29T08:36:50.702Z,4.60
2023-03-29T08:37:50.733Z,4.70
2023-03-29T08:38:50.670Z,4.50
2023-03-29T08:39:50.709Z,4.20
2023-03-29T08:40:50.660Z,5.00
2023-03-29T08:41:50.657Z,4.70
2023-03-29T08:42:50.641Z,4.50
2023-03-29T08:43:50.656Z,5.10
2023-03-29T08:44:50.622Z,4.50
2023-03-29T08:45:51.099Z,4.60
2023-03-29T08:46:50.667Z,4.80
2023-03-29T08:47:50.643Z,4.40
2023-03-29T08:48:50.575Z,4.70
2023-03-29T08:49:50.580Z,4.60
2023-03-29T08:50:50.543Z,4.50
2023-03-29T08:51:50.546Z,4.80
2023-03-29T08:52:50.526Z,4.40
2023-03-29T08:53:50.575Z,4.40
2023-03-29T08:54:50.517Z,4.20
2023-03-29T08:55:50.518Z,4.60
2023-03-29T08:56:50.643Z,4.50
2023-03-29T08:57:50.504Z,4.40
2023-03-29T08:58:50.472Z,4.90
2023-03-29T08:59:50.472Z,4.70
2023-03-29T09:00:50.438Z,4.50
2023-03-29T09:01:50.531Z,4.20
2023-03-29T09:02:50.515Z,4.60
2023-03-29T09:03:50.536Z,4.30
2023-03-29T09:04:50.400Z,4.60
2023-03-29T09:05:50.407Z,4.40
2023-03-29T09:06:50.390Z,4.40
2023-03-29T09:07:50.383Z,4.50
2023-03-29T09:08:50.383Z,4.40
2023-03-29T09:09:50.374Z,4.10
2023-03-29T09:10:50.326Z,4.40
2023-03-29T09:11:50.337Z,4.30
2023-03-29T09:12:50.366Z,4.40
2023-03-29T09:13:50.348Z,4.60
2023-03-29T09:14:50.282Z,4.10
2023-03-29T09:15:50.365Z,4.60
2023-03-29T09:16:50.265Z,4.40
2023-03-29T09:17:50.289Z,4.30
2023-03-29T09:18:50.267Z,4.40
2023-03-29T09:19:50.254Z,4.40
2023-03-29T09:20:50.220Z,4.30
2023-03-29T09:21:50.254Z,4.40
2023-03-29T09:22:50.197Z,4.70
2023-03-29T09:23:50.262Z,5.00
2023-03-29T09:24:50.194Z,4.70
2023-03-29T09:25:53.432Z,4.70
2023-03-29T09:26:50.158Z,4.70
2023-03-29T09:27:50.184Z,4.60
2023-03-29T09:28:50.127Z,4.60
2023-03-29T09:29:50.157Z,4.30
2023-03-29T09:30:50.135Z,4.70
2023-03-29T09:31:50.168Z,4.50
2023-03-29T09:32:50.133Z,4.10
2023-03-29T09:33:50.108Z,4.50
2023-03-29T09:34:50.063Z,4.20
2023-03-29T09:35:50.131Z,4.30
2023-03-29T09:36:50.042Z,4.50
2023-03-29T09:37:50.063Z,4.40
2023-03-29T09:38:50.046Z,4.40
2023-03-29T09:39:50.052Z,4.40
2023-03-29T09:40:50.039Z,4.30
2023-03-29T09:41:50.016Z,4.70
2023-03-29T09:42:49.988Z,4.30
2023-03-29T09:43:49.996Z,4.80
2023-03-29T09:44:49.957Z,4.10
2023-03-29T09:45:50.009Z,4.40
2023-03-29T09:46:49.954Z,4.60
2023-03-29T09:47:49.994Z,4.00
2023-03-29T09:48:49.923Z,4.10
2023-03-29T09:49:49.943Z,4.60
2023-03-29T09:50:49.895Z,4.60
2023-03-29T09:51:49.945Z,4.50
2023-03-29T09:52:49.872Z,4.50
2023-03-29T09:53:49.890Z,4.50
2023-03-29T09:54:49.864Z,4.60
2023-03-29T09:55:50.450Z,4.50
2023-03-29T09:56:49.952Z,4.60
2023-03-29T09:57:49.863Z,5.20
2023-03-29T09:58:49.809Z,4.90
2023-03-29T09:59:49.846Z,4.50
2023-03-29T10:00:49.846Z,4.60
2023-03-29T10:01:49.984Z,4.50
2023-03-29T10:02:49.824Z,5.00
2023-03-29T10:03:49.803Z,4.40
2023-03-29T10:04:49.747Z,4.90
2023-03-29T10:05:49.772Z,4.50
2023-03-29T10:06:49.727Z,4.60
2023-03-29T10:07:49.765Z,4.90
2023-03-29T10:08:49.712Z,5.50
2023-03-29T10:09:49.721Z,4.80
2023-03-29T10:10:49.691Z,5.10
2023-03-29T10:11:49.713Z,5.10
2023-03-29T10:12:49.670Z,5.40
2023-03-29T10:13:49.695Z,5.20
2023-03-29T10:14:52.249Z,5.90
2023-03-29T10:15:49.658Z,5.50
2023-03-29T10:16:49.650Z,6.10
2023-03-29T10:17:49.697Z,5.90
2023-03-29T10:18:49.693Z,5.90
2023-03-29T10:19:49.611Z,6.00
2023-03-29T10:20:49.578Z,5.70
2023-03-29T10:21:49.595Z,5.20
2023-03-29T10:22:49.556Z,5.30
2023-03-29T10:23:49.722Z,5.30
2023-03-29T10:24:49.534Z,5.00
2023-03-29T10:25:49.554Z,5.60
2023-03-29T10:26:49.515Z,5.10
2023-03-29T10:27:49.537Z,5.20
2023-03-29T10:28:49.504Z,5.50
2023-03-29T10:29:54.158Z,6.00
2023-03-29T10:30:49.474Z,5.20
2023-03-29T10:31:49.501Z,5.10
2023-03-29T10:32:49.466Z,5.00
2023-03-29T10:33:49.465Z,4.80
2023-03-29T10:34:49.638Z,5.00
2023-03-29T10:35:49.505Z,5.50
2023-03-29T10:36:49.406Z,5.20
2023-03-29T10:37:49.416Z,5.10
2023-03-29T10:38:49.387Z,5.00
2023-03-29T10:39:49.669Z,5.10
2023-03-29T10:40:49.384Z,4.70
2023-03-29T10:41:49.373Z,4.80
2023-03-29T10:42:49.358Z,4.80
2023-03-29T10:43:49.365Z,4.80
2023-03-29T10:44:49.320Z,5.10
2023-03-29T10:45:49.450Z,5.20
2023-03-29T10:46:49.319Z,5.20
2023-03-29T10:47:49.365Z,5.30
2023-03-29T10:48:49.289Z,5.40
2023-03-29T10:49:50.403Z,5.10
2023-03-29T10:50:49.301Z,5.50
2023-03-29T10:51:49.307Z,6.00
2023-03-29T10:52:49.231Z,5.70
2023-03-29T10:53:49.258Z,6.00
2023-03-29T10:54:49.219Z,5.80
2023-03-29T10:55:49.252Z,5.90
2023-03-29T10:56:51.979Z,6.10
2023-03-29T10:57:49.240Z,5.80
2023-03-29T10:58:49.178Z,6.20
2023-03-29T10:59:49.182Z,5.80
2023-03-29T11:00:49.169Z,5.80
2023-03-29T11:01:49.198Z,6.80
2023-03-29T11:02:49.231Z,6.30
2023-03-29T11:03:49.312Z,6.40
2023-03-29T11:04:49.136Z,6.20
2023-03-29T11:05:49.098Z,6.10
2023-03-29T11:06:49.118Z,7.80
2023-03-29T11:07:49.103Z,9.00
2023-03-29T11:08:49.098Z,7.90
2023-03-29T11:09:49.070Z,7.80
2023-03-29T11:10:49.064Z,7.30
2023-03-29T11:11:49.057Z,6.90
2023-03-29T11:12:49.048Z,7.70
2023-03-29T11:13:49.014Z,7.20
2023-03-29T11:14:49.066Z,8.10
2023-03-29T11:15:49.034Z,7.40
2023-03-29T11:16:49.018Z,6.70
2023-03-29T11:17:49.006Z,6.20
2023-03-29T11:18:48.978Z,6.80
2023-03-29T11:19:48.962Z,7.10
2023-03-29T11:20:48.954Z,5.30
2023-03-29T11:21:48.940Z,5.80
2023-03-29T11:22:48.967Z,6.10
2023-03-29T11:23:48.929Z,6.20
2023-03-29T11:24:48.951Z,6.30
2023-03-29T11:25:48.901Z,6.10
2023-03-29T11:26:48.897Z,8.40
2023-03-29T11:27:48.886Z,7.30
2023-03-29T11:28:48.898Z,6.00
2023-03-29T11:29:48.857Z,5.90
2023-03-29T11:30:48.892Z,6.00
2023-03-29T11:31:48.849Z,6.00
2023-03-29T11:32:48.915Z,5.60
2023-03-29T11:33:48.862Z,5.00
2023-03-29T11:34:48.862Z,5.90
2023-03-29T11:35:48.784Z,5.20
2023-03-29T11:36:48.793Z,5.20
2023-03-29T11:37:48.769Z,5.50
2023-03-29T11:38:48.762Z,6.10
2023-03-29T11:39:48.886Z,6.00
2023-03-29T11:40:48.742Z,5.90
2023-03-29T11:41:48.708Z,5.30
2023-03-29T11:42:48.720Z,5.10
2023-03-29T11:43:48.702Z,5.10
2023-03-29T11:44:48.714Z,5.40
2023-03-29T11:45:48.700Z,5.30
2023-03-29T11:46:48.752Z,4.80
2023-03-29T11:47:48.660Z,5.30
2023-03-29T11:48:48.657Z,4.90
2023-03-29T11:49:48.657Z,4.90
2023-03-29T11:50:48.635Z,5.40
2023-03-29T11:51:48.608Z,5.40
2023-03-29T11:52:48.611Z,4.90
2023-03-29T11:53:48.608Z,4.50
2023-03-29T11:54:48.613Z,4.70
2023-03-29T11:55:48.620Z,4.50
2023-03-29T11:56:48.613Z,4.50
2023-03-29T11:57:48.542Z,4.30
2023-03-29T11:58:48.546Z,4.40
2023-03-29T11:59:48.532Z,4.20
2023-03-29T12:00:48.540Z,4.20
2023-03-29T12:01:48.506Z,4.40
2023-03-29T12:02:48.676Z,8.60
2023-03-29T12:03:48.590Z,4.30
2023-03-29T12:04:48.514Z,4.50
2023-03-29T12:05:48.466Z,4.70
2023-03-29T12:06:48.462Z,4.20
2023-03-29T12:07:48.437Z,3.90
2023-03-29T12:08:48.447Z,5.00
2023-03-29T12:09:48.445Z,4.30
2023-03-29T12:10:48.456Z,4.90
2023-03-29T12:11:48.638Z,4.20
2023-03-29T12:12:48.419Z,4.20
2023-03-29T12:13:48.372Z,4.20
2023-03-29T12:14:48.378Z,4.80
2023-03-29T12:15:48.357Z,4.30
2023-03-29T12:16:48.453Z,4.70
2023-03-29T12:17:48.354Z,4.30
2023-03-29T12:18:48.336Z,4.40
2023-03-29T12:19:48.317Z,4.20
2023-03-29T12:20:48.324Z,4.60
2023-03-29T12:21:48.295Z,4.60
2023-03-29T12:22:48.293Z,4.50
2023-03-29T12:23:48.274Z,4.30
2023-03-29T12:24:48.289Z,4.40
2023-03-29T12:25:48.252Z,4.20
2023-03-29T12:26:48.240Z,4.20
2023-03-29T12:27:48.226Z,4.20
2023-03-29T12:28:48.220Z,4.20
2023-03-29T12:29:48.190Z,4.10
2023-03-29T12:30:48.205Z,4.20
2023-03-29T12:31:48.209Z,4.10
2023-03-29T12:32:48.218Z,4.10
2023-03-29T12:33:48.148Z,4.10
2023-03-29T12:34:48.186Z,3.90
2023-03-29T12:35:48.141Z,3.90
2023-03-29T12:36:48.161Z,4.00
2023-03-29T12:37:48.106Z,4.00
2023-03-29T12:38:48.156Z,3.80
2023-03-29T12:39:48.083Z,3.90
2023-03-29T12:40:48.092Z,4.30
2023-03-29T12:41:48.062Z,3.80
2023-03-29T12:42:48.142Z,3.60
2023-03-29T12:43:48.059Z,4.10
2023-03-29T12:44:48.049Z,3.70
2023-03-29T12:45:48.046Z,3.80
2023-03-29T12:46:48.046Z,3.70
2023-03-29T12:47:48.109Z,4.20
2023-03-29T12:48:48.009Z,4.30
2023-03-29T12:49:48.000Z,4.20
2023-03-29T12:50:47.990Z,4.20
2023-03-29T12:51:47.959Z,4.10
2023-03-29T12:52:47.996Z,4.50
2023-03-29T12:53:47.933Z,4.00
2023-03-29T12:54:47.959Z,4.20
2023-03-29T12:55:47.914Z,4.10
2023-03-29T12:56:47.937Z,3.90
2023-03-29T12:57:47.916Z,4.30
2023-03-29T12:58:47.906Z,3.70
2023-03-29T12:59:47.868Z,3.90
2023-03-29T13:00:47.956Z,3.70
2023-03-29T13:01:48.022Z,3.60
2023-03-29T13:02:47.902Z,3.50
2023-03-29T13:03:47.838Z,4.00
2023-03-29T13:04:47.881Z,4.00
2023-03-29T13:05:47.827Z,3.90
2023-03-29T13:06:47.819Z,3.80
2023-03-29T13:07:47.789Z,3.80
2023-03-29T13:08:47.812Z,3.90
2023-03-29T13:09:47.773Z,4.10
2023-03-29T13:10:47.775Z,3.90
2023-03-29T13:11:47.737Z,4.20
2023-03-29T13:12:47.754Z,3.90
2023-03-29T13:13:47.716Z,4.40
2023-03-29T13:14:47.754Z,4.50
2023-03-29T13:15:47.726Z,4.50
2023-03-29T13:16:47.710Z,4.30
2023-03-29T13:17:47.707Z,4.10
2023-03-29T13:18:47.689Z,4.00